createdAt,value
2023-03-22T00:01:10.388Z,23.20
2023-03-22T00:03:36.851Z,23.17
2023-03-22T00:06:03.204Z,23.17
2023-03-22T00:08:29.504Z,23.13
2023-03-22T00:10:55.816Z,23.09
2023-03-22T00:13:22.147Z,23.08
2023-03-22T00:15:49.171Z,23.06
2023-03-22T00:18:16.075Z,23.04
2023-03-22T00:20:52.190Z,23.03
2023-03-22T00:23:18.501Z,23.01
2023-03-22T00:25:44.894Z,22.98
2023-03-22T00:28:11.318Z,22.97
2023-03-22T00:30:37.846Z,22.94
2023-03-22T00:33:04.564Z,22.92
2023-03-22T00:35:30.919Z,22.91
2023-03-22T00:37:57.321Z,22.88
2023-03-22T00:40:23.645Z,22.86
2023-03-22T00:42:50.573Z,22.85
2023-03-22T00:45:16.884Z,22.82
2023-03-22T00:47:43.419Z,22.81
2023-03-22T00:50:09.952Z,22.83
2023-03-22T00:52:36.268Z,22.80
2023-03-22T00:55:02.570Z,22.80
2023-03-22T00:57:28.945Z,22.78
2023-03-22T00:59:55.861Z,22.76
2023-03-22T01:02:29.763Z,22.76
2023-03-22T01:04:56.090Z,22.74
2023-03-22T01:07:23.978Z,22.72
2023-03-22T01:09:50.617Z,22.70
2023-03-22T01:12:17.081Z,22.67
2023-03-22T01:14:43.469Z,22.65
2023-03-22T01:17:09.777Z,22.64
2023-03-22T01:19:36.086Z,22.61
2023-03-22T01:22:02.768Z,22.59
2023-03-22T01:24:29.660Z,22.58
2023-03-22T01:26:56.295Z,22.56
2023-03-22T01:29:23.027Z,22.55
2023-03-22T01:31:49.379Z,22.54
2023-03-22T01:34:15.693Z,22.55
2023-03-22T01:36:41.998Z,22.53
2023-03-22T01:39:08.309Z,22.51
2023-03-22T01:41:35.097Z,22.52
2023-03-22T01:44:12.590Z,22.51
2023-03-22T01:46:42.520Z,22.51
2023-03-22T01:49:09.559Z,22.49
2023-03-22T01:51:36.050Z,22.48
2023-03-22T01:54:02.716Z,22.46
2023-03-22T01:56:30.201Z,22.45
2023-03-22T01:58:56.598Z,22.44
2023-03-22T02:01:22.970Z,22.43
2023-03-22T02:03:59.008Z,22.40
2023-03-22T02:06:25.843Z,22.41
2023-03-22T02:08:57.856Z,22.40
2023-03-22T02:11:27.245Z,22.39
2023-03-22T02:13:58.616Z,22.37
2023-03-22T02:16:43.944Z,22.37
2023-03-22T02:19:30.484Z,22.33
2023-03-22T02:22:09.833Z,22.30
2023-03-22T02:24:39.131Z,22.28
2023-03-22T02:27:24.271Z,22.27
2023-03-22T02:30:00.340Z,22.26
2023-03-22T02:32:44.693Z,22.25
2023-03-22T02:35:17.063Z,22.23
2023-03-22T02:37:48.097Z,22.22
2023-03-22T02:40:15.309Z,22.16
2023-03-22T02:42:47.682Z,22.15
2023-03-22T02:45:18.327Z,22.17
2023-03-22T02:47:54.388Z,22.15
2023-03-22T02:50:30.807Z,22.15
2023-03-22T02:53:02.833Z,22.13
2023-03-22T02:55:58.673Z,22.12
2023-03-22T02:58:26.526Z,22.11
2023-03-22T03:01:03.389Z,22.07
2023-03-22T03:03:30.476Z,22.08
2023-03-22T03:05:57.706Z,22.11
2023-03-22T03:08:24.218Z,22.15
2023-03-22T03:10:50.792Z,22.16
2023-03-22T03:13:17.406Z,22.16
2023-03-22T03:15:45.108Z,22.15
2023-03-22T03:18:16.037Z,22.15
2023-03-22T03:21:00.365Z,22.15
2023-03-22T03:23:45.924Z,22.13
2023-03-22T03:26:13.597Z,22.11
2023-03-22T03:28:50.858Z,22.11
2023-03-22T03:31:23.272Z,22.09
2023-03-22T03:33:56.088Z,22.09
2023-03-22T03:36:22.431Z,22.05
2023-03-22T03:38:49.839Z,22.03
2023-03-22T03:41:17.088Z,22.04
2023-03-22T03:43:43.446Z,22.04
2023-03-22T03:46:09.811Z,22.06
2023-03-22T03:48:36.822Z,22.09
2023-03-22T03:51:03.162Z,22.11
2023-03-22T03:53:29.756Z,22.11
2023-03-22T03:55:56.317Z,22.10
2023-03-22T03:58:22.631Z,22.10
2023-03-22T04:00:49.218Z,22.10
2023-03-22T04:03:15.634Z,22.04
2023-03-22T04:05:42.098Z,22.07
2023-03-22T04:08:08.511Z,22.02
2023-03-22T04:10:34.845Z,22.07
2023-03-22T04:13:01.164Z,22.03
2023-03-22T04:15:27.509Z,22.04
2023-03-22T04:17:53.954Z,22.02
2023-03-22T04:20:20.917Z,22.02
2023-03-22T04:22:48.419Z,22.00
2023-03-22T04:25:18.053Z,22.00
2023-03-22T04:27:45.103Z,21.98
2023-03-22T04:30:12.515Z,21.98
2023-03-22T04:32:38.828Z,21.98
2023-03-22T04:35:05.340Z,21.97
2023-03-22T04:37:31.654Z,21.95
2023-03-22T04:39:58.604Z,21.94
2023-03-22T04:42:25.428Z,21.92
2023-03-22T04:44:51.745Z,21.91
2023-03-22T04:47:18.290Z,21.91
2023-03-22T04:49:44.646Z,21.90
2023-03-22T04:52:10.984Z,21.87
2023-03-22T04:54:37.479Z,21.88
2023-03-22T04:57:04.007Z,21.89
2023-03-22T04:59:30.565Z,21.92
2023-03-22T05:01:56.963Z,21.95
2023-03-22T05:04:23.295Z,21.97
2023-03-22T05:06:49.740Z,22.00
2023-03-22T05:09:16.120Z,21.98
2023-03-22T05:11:42.545Z,21.97
2023-03-22T05:14:09.410Z,21.97
2023-03-22T05:16:36.070Z,21.94
2023-03-22T05:19:02.758Z,21.92
2023-03-22T05:21:29.894Z,21.92
2023-03-22T05:23:56.558Z,21.91
2023-03-22T05:26:24.264Z,21.90
2023-03-22T05:28:51.165Z,21.89
2023-03-22T05:31:17.775Z,21.89
2023-03-22T05:33:46.556Z,21.88
2023-03-22T05:36:12.912Z,21.88
2023-03-22T05:38:39.284Z,21.88
2023-03-22T05:41:05.734Z,21.88
2023-03-22T05:43:32.768Z,21.86
2023-03-22T05:45:59.095Z,21.85
2023-03-22T05:48:25.422Z,21.84
2023-03-22T05:50:51.731Z,21.84
2023-03-22T05:53:18.051Z,21.83
2023-03-22T05:55:44.842Z,21.84
2023-03-22T05:58:11.182Z,21.79
2023-03-22T06:00:38.331Z,21.83
2023-03-22T06:03:05.362Z,21.82
2023-03-22T06:05:32.194Z,21.81
2023-03-22T06:07:58.828Z,21.80
2023-03-22T06:10:26.744Z,21.81
2023-03-22T06:12:53.445Z,21.80
2023-03-22T06:15:19.808Z,21.83
2023-03-22T06:17:46.185Z,21.86
2023-03-22T06:20:13.110Z,21.88
2023-03-22T06:22:39.467Z,21.89
2023-03-22T06:25:06.882Z,21.90
2023-03-22T06:27:33.252Z,21.93
2023-03-22T06:29:59.576Z,21.97
2023-03-22T06:32:26.693Z,22.03
2023-03-22T06:34:53.532Z,22.09
2023-03-22T06:37:20.217Z,22.13
2023-03-22T06:39:46.610Z,22.17
2023-03-22T06:42:12.938Z,22.23
2023-03-22T06:44:42.241Z,22.30
2023-03-22T06:47:08.885Z,22.40
2023-03-22T06:49:35.199Z,22.57
2023-03-22T06:52:01.609Z,22.74
2023-03-22T06:54:27.942Z,22.84
2023-03-22T06:56:54.269Z,22.80
2023-03-22T06:59:20.581Z,22.82
2023-03-22T07:01:48.208Z,22.92
2023-03-22T07:04:14.608Z,23.14
2023-03-22T07:06:40.994Z,23.21
2023-03-22T07:09:07.328Z,23.25
2023-03-22T07:11:33.647Z,23.13
2023-03-22T07:14:00.001Z,23.03
2023-03-22T07:16:26.505Z,22.99
2023-03-22T07:18:52.969Z,22.96
2023-03-22T07:21:19.286Z,23.01
2023-03-22T07:23:45.604Z,23.06
2023-03-22T07:26:13.365Z,23.09
2023-03-22T07:28:41.482Z,23.09
2023-03-22T07:31:09.936Z,23.20
2023-03-22T07:33:36.296Z,23.29
2023-03-22T07:36:02.676Z,23.25
2023-03-22T07:38:29.067Z,23.25
2023-03-22T07:40:55.882Z,23.29
2023-03-22T07:45:49.015Z,23.22
2023-03-22T07:48:15.398Z,23.21
2023-03-22T07:50:42.848Z,23.18
2023-03-22T07:53:09.517Z,23.18
2023-03-22T07:55:36.101Z,23.18
2023-03-22T07:58:02.657Z,23.16
2023-03-22T08:00:29.021Z,23.13
2023-03-22T08:02:55.605Z,23.10
2023-03-22T08:05:22.566Z,23.05
2023-03-22T08:07:49.276Z,23.04
2023-03-22T08:10:16.057Z,23.02
2023-03-22T08:12:42.393Z,23.02
2023-03-22T08:15:09.182Z,23.01
2023-03-22T08:17:35.508Z,23.01
2023-03-22T08:20:04.954Z,23.00
2023-03-22T08:22:31.287Z,22.98
2023-03-22T08:24:57.616Z,22.92
2023-03-22T08:27:24.057Z,22.87
2023-03-22T08:29:50.481Z,22.83
2023-03-22T08:32:16.807Z,22.81
2023-03-22T08:34:43.187Z,22.79
2023-03-22T08:37:09.621Z,22.77
2023-03-22T08:39:36.510Z,22.81
2023-03-22T08:42:02.830Z,22.78
2023-03-22T08:44:29.178Z,22.74
2023-03-22T08:46:55.506Z,22.68
2023-03-22T08:49:21.869Z,22.67
2023-03-22T08:51:48.188Z,22.71
2023-03-22T08:54:14.568Z,22.67
2023-03-22T08:56:41.891Z,22.65
2023-03-22T08:59:08.505Z,22.63
2023-03-22T09:01:35.512Z,22.61
2023-03-22T09:04:03.494Z,22.63
2023-03-22T09:06:29.877Z,22.58
2023-03-22T09:08:56.640Z,22.63
2023-03-22T09:11:22.973Z,22.63
2023-03-22T09:13:49.403Z,22.60
2023-03-22T09:16:16.558Z,22.57
2023-03-22T09:18:42.921Z,22.57
2023-03-22T09:21:09.256Z,22.56
2023-03-22T09:23:36.409Z,22.56
2023-03-22T09:26:03.579Z,22.54
2023-03-22T09:28:30.077Z,22.55
2023-03-22T09:31:00.084Z,22.55
2023-03-22T09:33:26.431Z,22.54
2023-03-22T09:35:53.546Z,22.52
2023-03-22T09:38:20.552Z,22.53
2023-03-22T09:40:51.095Z,22.55
2023-03-22T09:43:17.455Z,22.57
2023-03-22T09:45:44.534Z,22.64
2023-03-22T09:48:18.535Z,22.70
2023-03-22T09:50:46.458Z,22.77
2023-03-22T09:53:13.718Z,22.83
2023-03-22T09:55:41.701Z,22.84
2023-03-22T09:58:08.201Z,22.82
2023-03-22T10:00:37.563Z,22.84
2023-03-22T10:03:24.560Z,22.84
2023-03-22T10:05:57.345Z,22.84
2023-03-22T10:08:35.476Z,22.84
2023-03-22T10:11:01.800Z,22.86
2023-03-22T10:13:28.108Z,22.86
2023-03-22T10:15:55.840Z,22.85
2023-03-22T10:18:23.542Z,22.83
2023-03-22T10:20:49.886Z,22.85
2023-03-22T10:23:17.277Z,22.88
2023-03-22T10:25:43.591Z,22.89
2023-03-22T10:28:30.178Z,22.88
2023-03-22T10:30:56.868Z,22.90
2023-03-22T10:33:39.115Z,22.93
2023-03-22T10:36:06.437Z,22.94
2023-03-22T10:38:32.791Z,22.98
2023-03-22T10:40:59.143Z,23.04
2023-03-22T10:43:27.877Z,23.05
2023-03-22T10:45:54.211Z,23.01
2023-03-22T10:48:28.183Z,23.01
2023-03-22T10:50:54.602Z,23.01
2023-03-22T10:53:50.994Z,23.02
2023-03-22T10:56:18.758Z,23.08
2023-03-22T10:58:45.114Z,23.09
2023-03-22T11:01:12.633Z,23.13
2023-03-22T11:03:42.692Z,23.17
2023-03-22T11:06:10.791Z,23.22
2023-03-22T11:08:40.988Z,23.26
2023-03-22T11:11:07.879Z,23.30
2023-03-22T11:13:34.213Z,23.36
2023-03-22T11:16:02.297Z,23.41
2023-03-22T11:18:30.239Z,23.44
2023-03-22T11:21:00.406Z,23.45
2023-03-22T11:23:26.799Z,23.43
2023-03-22T11:25:55.149Z,23.41
2023-03-22T11:28:22.506Z,23.39
2023-03-22T11:31:02.362Z,23.39
2023-03-22T11:33:28.790Z,23.38
2023-03-22T11:35:56.062Z,23.35
2023-03-22T11:38:23.300Z,23.32
2023-03-22T11:40:52.093Z,23.35
2023-03-22T11:43:25.893Z,23.39
2023-03-22T11:45:53.547Z,23.45
2023-03-22T11:48:23.545Z,23.46
2023-03-22T11:50:49.933Z,23.46
2023-03-22T11:53:16.999Z,23.46
2023-03-22T11:55:43.774Z,23.49
2023-03-22T11:58:21.901Z,23.51
2023-03-22T12:00:52.331Z,23.49
2023-03-22T12:03:19.998Z,23.47
2023-03-22T12:05:47.151Z,23.43
2023-03-22T12:08:16.017Z,23.42
2023-03-22T12:10:42.798Z,23.41
2023-03-22T12:13:12.158Z,23.41
2023-03-22T12:15:39.526Z,23.40
2023-03-22T12:18:12.148Z,23.41
2023-03-22T12:20:49.097Z,23.38
2023-03-22T12:23:16.753Z,23.37
2023-03-22T12:25:47.551Z,23.36
2023-03-22T12:28:16.151Z,23.33
2023-03-22T12:30:43.364Z,23.29
2023-03-22T12:33:11.818Z,23.25
2023-03-22T12:35:39.411Z,23.26
2023-03-22T12:38:27.708Z,23.24
2023-03-22T12:40:54.674Z,23.23
2023-03-22T12:43:33.311Z,23.23
2023-03-22T12:45:59.989Z,23.19
2023-03-22T12:48:26.292Z,23.17
2023-03-22T12:51:00.532Z,23.17
2023-03-22T12:53:28.046Z,23.18
2023-03-22T12:55:55.501Z,23.17
2023-03-22T12:58:22.578Z,23.16
2023-03-22T13:00:51.879Z,23.11
2023-03-22T13:03:18.529Z,23.09
2023-03-22T13:05:45.413Z,23.12
2023-03-22T13:08:11.772Z,23.12
2023-03-22T13:10:41.527Z,23.11
2023-03-22T13:13:17.005Z,23.12
2023-03-22T13:15:56.699Z,23.12
2023-03-22T13:18:35.584Z,23.11
2023-03-22T13:21:12.885Z,23.09
2023-03-22T13:23:57.996Z,23.09
2023-03-22T13:26:29.855Z,23.06
2023-03-22T13:28:56.935Z,23.04
2023-03-22T13:31:32.258Z,23.03
2023-03-22T13:34:01.147Z,23.02
2023-03-22T13:36:29.239Z,23.04
2023-03-22T13:38:59.395Z,23.00
2023-03-22T13:41:28.859Z,22.97
2023-03-22T13:43:55.810Z,22.95
2023-03-22T13:46:22.204Z,22.98
2023-03-22T13:48:49.326Z,22.96
2023-03-22T13:51:22.314Z,22.95
2023-03-22T13:53:51.443Z,22.91
2023-03-22T13:56:28.168Z,22.84
2023-03-22T13:58:54.591Z,22.84
2023-03-22T14:01:27.905Z,22.84
2023-03-22T14:03:54.657Z,22.82
2023-03-22T14:06:22.485Z,22.81
2023-03-22T14:08:51.762Z,22.79
2023-03-22T14:11:18.082Z,22.78
2023-03-22T14:13:46.424Z,22.74
2023-03-22T14:16:18.360Z,22.75
2023-03-22T14:18:45.402Z,22.74
2023-03-22T14:21:13.427Z,22.71
